Time;durP1;ratioP1;P1;durP2;ratioP2;P2;SDS_P1;SDS_P2;PMS_P1;PMS_P2;Temp;Humidity;BMP_temperature;BMP_pressure;BME280_temperature;BME280_humidity;BME280_pressure;Samples;Min_cycle;Max_cycle;Signal;HPM_P1;HPM_P2
2021/03/20 00:00:38;;;;;;;17.67;7.73;;;;;;;-1.28;100.00;96819.53;5036561;28;20226;-74
2021/03/20 00:03:04;;;;;;;18.53;7.80;;;;;;;-1.29;100.00;96810.09;5036722;28;20196;-74
2021/03/20 00:05:30;;;;;;;14.83;7.13;;;;;;;-1.32;100.00;96815.44;5035293;28;20220;-74
2021/03/20 00:07:57;;;;;;;15.43;6.90;;;;;;;-1.35;100.00;96823.38;5036915;28;20209;-74
2021/03/20 00:10:24;;;;;;;16.60;8.10;;;;;;;-1.52;100.00;96826.13;5036088;28;20212;-74
2021/03/20 00:12:52;;;;;;;13.57;7.27;;;;;;;-1.59;100.00;96827.41;5036672;28;20209;-74
2021/03/20 00:15:20;;;;;;;15.83;7.23;;;;;;;-1.58;100.00;96821.31;5035750;28;20231;-74
2021/03/20 00:17:47;;;;;;;15.97;7.43;;;;;;;-1.57;100.00;96826.38;5036487;28;20216;-74
2021/03/20 00:20:16;;;;;;;16.33;7.07;;;;;;;-1.59;100.00;96822.22;5036617;28;20237;-74
2021/03/20 00:22:42;;;;;;;14.10;7.10;;;;;;;-1.52;100.00;96826.13;5037131;28;20205;-74
2021/03/20 00:25:10;;;;;;;12.80;6.90;;;;;;;-1.47;100.00;96826.69;5035094;28;20225;-74
2021/03/20 00:27:36;;;;;;;14.10;6.77;;;;;;;-1.42;100.00;96829.84;5036281;28;21002;-74
2021/03/20 00:30:04;;;;;;;12.20;6.43;;;;;;;-1.50;100.00;96821.69;5036392;28;20676;-74
2021/03/20 00:32:30;;;;;;;15.20;6.93;;;;;;;-1.43;100.00;96828.19;5035894;28;20197;-74
2021/03/20 00:34:57;;;;;;;14.73;6.67;;;;;;;-1.43;100.00;96830.75;5036364;28;20264;-74
2021/03/20 00:37:23;;;;;;;13.57;6.50;;;;;;;-1.42;100.00;96832.44;5035702;28;20209;-74
2021/03/20 00:39:49;;;;;;;14.40;6.83;;;;;;;-1.46;100.00;96828.38;5035996;28;20228;-74
2021/03/20 00:42:15;;;;;;;13.97;6.63;;;;;;;-1.43;100.00;96829.00;5036403;28;20201;-74
2021/03/20 00:44:41;;;;;;;13.47;7.00;;;;;;;-1.45;100.00;96833.44;5036080;28;20315;-74
2021/03/20 00:47:07;;;;;;;12.43;6.70;;;;;;;-1.42;100.00;96835.00;5035740;28;20494;-74
2021/03/20 00:49:33;;;;;;;10.67;5.90;;;;;;;-1.54;100.00;96838.31;5035806;28;20204;-74
2021/03/20 00:51:59;;;;;;;15.83;6.33;;;;;;;-1.61;100.00;96830.09;5036225;28;20205;-74
2021/03/20 00:54:25;;;;;;;16.77;6.27;;;;;;;-1.61;100.00;96834.44;5036117;28;20225;-74
2021/03/20 00:56:52;;;;;;;14.07;6.40;;;;;;;-1.60;100.00;96830.94;5035454;28;20224;-74
2021/03/20 00:59:18;;;;;;;18.23;7.07;;;;;;;-1.58;100.00;96829.91;5036229;28;20229;-74
2021/03/20 01:01:44;;;;;;;15.30;5.93;;;;;;;-1.78;100.00;96830.25;5036422;28;20205;-74
2021/03/20 01:04:10;;;;;;;16.00;6.67;;;;;;;-1.80;100.00;96828.66;5035955;28;20232;-74
2021/03/20 01:06:36;;;;;;;15.33;6.53;;;;;;;-1.93;100.00;96829.47;5035188;28;20212;-74
2021/03/20 01:09:03;;;;;;;12.67;5.97;;;;;;;-1.91;100.00;96823.28;5035998;28;20367;-74
2021/03/20 01:11:30;;;;;;;12.50;6.10;;;;;;;-1.97;100.00;96825.38;5036253;28;20205;-74
2021/03/20 01:13:58;;;;;;;14.30;6.43;;;;;;;-2.03;100.00;96826.56;5035948;28;20822;-74
2021/03/20 01:16:24;;;;;;;13.50;6.73;;;;;;;-1.98;100.00;96827.13;5036810;28;20327;-74
2021/03/20 01:18:52;;;;;;;14.40;6.50;;;;;;;-1.91;100.00;96833.59;5039767;28;20213;-75
2021/03/20 01:21:18;;;;;;;16.23;6.97;;;;;;;-1.87;100.00;96829.09;5039238;28;20275;-74
2021/03/20 01:23:44;;;;;;;12.23;6.03;;;;;;;-2.00;100.00;96835.91;5039476;28;20210;-73
2021/03/20 01:26:11;;;;;;;14.17;6.63;;;;;;;-1.92;100.00;96834.53;5038619;28;20229;-73
2021/03/20 01:28:39;;;;;;;14.93;6.37;;;;;;;-1.85;100.00;96841.00;5039211;28;20216;-74
2021/03/20 01:31:06;;;;;;;14.47;6.47;;;;;;;-1.78;100.00;96835.41;5039365;28;20193;-75
2021/03/20 01:33:32;;;;;;;15.83;7.23;;;;;;;-1.74;100.00;96834.31;5040246;28;20202;-74
2021/03/20 01:35:58;;;;;;;15.30;6.67;;;;;;;-1.81;100.00;96835.59;5038737;28;20231;-75
2021/03/20 01:38:25;;;;;;;15.33;7.40;;;;;;;-1.72;100.00;96826.47;5038918;28;20233;-72
2021/03/20 01:40:53;;;;;;;13.37;6.40;;;;;;;-1.75;100.00;96831.81;5039407;28;20240;-73
2021/03/20 01:43:23;;;;;;;15.67;6.57;;;;;;;-1.69;100.00;96836.63;5039529;28;20208;-74
2021/03/20 01:45:49;;;;;;;13.63;6.77;;;;;;;-1.81;100.00;96838.19;5038439;28;20225;-73
2021/03/20 01:48:21;;;;;;;12.03;6.20;;;;;;;-2.01;100.00;96841.97;5038952;28;20208;-74
2021/03/20 01:50:54;;;;;;;16.30;7.10;;;;;;;-2.07;100.00;96843.16;5039515;28;20205;-73
2021/03/20 01:53:33;;;;;;;13.80;6.33;;;;;;;-2.05;100.00;96840.47;5039170;28;20546;-74
2021/03/20 01:56:00;;;;;;;17.97;7.77;;;;;;;-2.14;100.00;96841.00;5038108;28;20224;-73
2021/03/20 01:58:29;;;;;;;14.00;6.10;;;;;;;-2.10;100.00;96845.06;5039076;28;20212;-75
2021/03/20 02:01:02;;;;;;;9.17;4.33;;;;;;;-2.27;100.00;96843.44;5038496;28;20415;-75
2021/03/20 02:03:29;;;;;;;12.17;5.97;;;;;;;-2.32;100.00;96845.47;5038820;28;20211;-75
2021/03/20 02:05:55;;;;;;;13.17;6.70;;;;;;;-2.29;100.00;96841.84;5038239;28;20231;-75
2021/03/20 02:08:22;;;;;;;13.00;6.47;;;;;;;-2.35;100.00;96837.88;5038637;28;20201;-75
2021/03/20 02:10:48;;;;;;;15.50;6.60;;;;;;;-2.36;100.00;96846.53;5038437;28;20220;-74
2021/03/20 02:13:21;;;;;;;13.13;6.47;;;;;;;-2.37;100.00;96847.47;5038834;28;20657;-74
2021/03/20 02:15:56;;;;;;;14.53;6.17;;;;;;;-2.25;100.00;96845.97;5037984;28;20229;-73
2021/03/20 02:18:35;;;;;;;12.73;6.20;;;;;;;-2.28;100.00;96839.22;5038756;28;20556;-73
2021/03/20 02:21:22;;;;;;;16.00;6.30;;;;;;;-2.38;100.00;96848.38;5038867;28;20221;-74
2021/03/20 02:24:20;;;;;;;13.60;6.47;;;;;;;-2.29;100.00;96841.84;5038197;28;20205;-74
2021/03/20 02:27:22;;;;;;;12.00;5.80;;;;;;;-2.39;100.00;96849.28;5037682;28;20215;-75
2021/03/20 02:30:34;;;;;;;14.20;6.13;;;;;;;-2.50;100.00;96844.81;5038385;28;20209;-75
2021/03/20 02:33:19;;;;;;;12.90;5.93;;;;;;;-2.47;100.00;96842.06;5038372;28;20205;-73
2021/03/20 02:35:57;;;;;;;15.47;6.57;;;;;;;-2.46;100.00;96846.31;5037720;28;20232;-75
2021/03/20 02:38:31;;;;;;;15.13;7.03;;;;;;;-2.47;100.00;96842.88;5037818;28;21055;-74
2021/03/20 02:41:02;;;;;;;15.93;7.10;;;;;;;-2.43;100.00;96839.25;5038112;28;20346;-74
2021/03/20 02:43:37;;;;;;;14.27;6.57;;;;;;;-2.34;100.00;96844.72;5038964;28;20197;-73
2021/03/20 02:46:10;;;;;;;14.30;6.83;;;;;;;-2.38;100.00;96853.53;5036764;28;20316;-75
2021/03/20 02:48:43;;;;;;;14.53;6.87;;;;;;;-2.33;100.00;96843.81;5037846;28;20216;-75
2021/03/20 02:51:16;;;;;;;13.10;6.20;;;;;;;-2.28;100.00;96848.69;5038178;28;20261;-74
2021/03/20 02:53:49;;;;;;;15.23;7.00;;;;;;;-2.24;100.00;96848.44;5037952;28;20197;-74
2021/03/20 02:56:21;;;;;;;16.07;7.13;;;;;;;-2.37;100.00;96856.94;5037099;28;20252;-74
2021/03/20 02:58:51;;;;;;;15.20;6.70;;;;;;;-2.27;100.00;96848.59;5038139;28;20328;-73
2021/03/20 03:01:21;;;;;;;10.57;5.27;;;;;;;-2.36;100.00;96861.19;5037693;28;20244;-74
2021/03/20 03:03:50;;;;;;;13.27;6.00;;;;;;;-2.26;100.00;96858.00;5037883;28;20209;-75
2021/03/20 03:06:23;;;;;;;13.03;6.17;;;;;;;-2.24;100.00;96853.59;5037115;28;20221;-74
2021/03/20 03:08:54;;;;;;;15.37;7.00;;;;;;;-2.20;100.00;96843.91;5037340;28;20223;-73
2021/03/20 03:11:25;;;;;;;16.47;7.23;;;;;;;-2.17;100.00;96842.00;5037488;28;20200;-73
2021/03/20 03:13:56;;;;;;;17.67;7.90;;;;;;;-2.17;100.00;96839.44;5037524;28;20583;-76
2021/03/20 03:16:30;;;;;;;18.53;8.33;;;;;;;-1.94;100.00;96836.38;5036998;28;20220;-74
2021/03/20 03:19:01;;;;;;;15.63;7.47;;;;;;;-1.84;100.00;96834.13;5037169;28;20212;-75
2021/03/20 03:21:31;;;;;;;13.23;7.07;;;;;;;-1.85;100.00;96835.84;5037113;28;20789;-74
2021/03/20 03:23:57;;;;;;;14.93;7.63;;;;;;;-1.84;100.00;96840.09;5037720;28;20633;-75
2021/03/20 03:26:27;;;;;;;15.77;7.30;;;;;;;-1.84;100.00;96844.44;5036573;28;20732;-74
2021/03/20 03:28:59;;;;;;;15.00;6.70;;;;;;;-1.73;100.00;96848.06;5037056;28;20205;-75
2021/03/20 03:31:30;;;;;;;15.73;7.53;;;;;;;-1.71;100.00;96843.63;5037507;28;20197;-75
2021/03/20 03:34:02;;;;;;;18.67;7.80;;;;;;;-1.62;100.00;96843.91;5037327;28;20232;-73
2021/03/20 03:36:35;;;;;;;18.30;7.27;;;;;;;-1.53;100.00;96840.78;5034470;28;20201;-74
2021/03/20 03:39:11;;;;;;;15.20;6.47;;;;;;;-1.52;100.00;96849.38;5036519;28;20251;-73
2021/03/20 03:41:39;;;;;;;17.37;7.60;;;;;;;-1.50;100.00;96855.28;5037017;28;20735;-73
2021/03/20 03:44:07;;;;;;;18.80;7.60;;;;;;;-1.47;100.00;96855.94;5037101;28;20267;-74
2021/03/20 03:46:36;;;;;;;18.23;8.30;;;;;;;-1.48;100.00;96850.88;5036417;28;20680;-74
2021/03/20 03:49:06;;;;;;;18.90;7.93;;;;;;;-1.37;100.00;96854.50;5036823;28;20212;-73
2021/03/20 03:51:32;;;;;;;18.07;7.33;;;;;;;-1.37;100.00;96858.84;5036810;28;20227;-72
2021/03/20 03:54:00;;;;;;;16.57;7.43;;;;;;;-1.43;100.00;96861.78;5037669;28;20263;-71
2021/03/20 03:56:46;;;;;;;15.83;6.63;;;;;;;-1.37;100.00;96853.66;5036125;28;20225;-74
2021/03/20 03:59:15;;;;;;;16.03;7.13;;;;;;;-1.41;100.00;96859.91;5036787;28;20201;-73
2021/03/20 04:01:51;;;;;;;14.70;6.77;;;;;;;-1.47;100.00;96863.69;5037227;28;20205;-74
2021/03/20 04:04:29;;;;;;;12.07;6.07;;;;;;;-1.58;100.00;96865.25;5036437;28;20209;-73
2021/03/20 04:07:19;;;;;;;12.57;6.00;;;;;;;-1.69;100.00;96867.63;5035473;28;20201;-73
2021/03/20 04:10:01;;;;;;;12.90;6.20;;;;;;;-1.78;100.00;96873.34;5033724;28;20209;-73
2021/03/20 04:12:33;;;;;;;13.23;6.13;;;;;;;-1.67;100.00;96866.63;5036785;28;20225;-72
2021/03/20 04:15:05;;;;;;;10.53;5.50;;;;;;;-1.67;100.00;96873.53;5036398;28;20229;-73
2021/03/20 04:17:39;;;;;;;14.60;4.73;;;;;;;-1.68;100.00;96870.13;5036453;28;20197;-72
2021/03/20 04:20:18;;;;;;;11.27;5.80;;;;;;;-1.66;100.00;96873.44;5036461;28;20243;-73
2021/03/20 04:23:01;;;;;;;12.23;5.37;;;;;;;-1.70;100.00;96879.69;5036643;28;20220;-74
2021/03/20 04:25:38;;;;;;;11.17;5.60;;;;;;;-1.58;100.00;96875.56;5035964;28;20278;-74
2021/03/20 04:28:14;;;;;;;13.07;5.43;;;;;;;-1.71;100.00;96875.44;5036323;28;20193;-72
2021/03/20 04:30:42;;;;;;;12.13;5.03;;;;;;;-1.86;100.00;96870.31;5036276;28;20208;-74
2021/03/20 04:33:14;;;;;;;12.87;6.03;;;;;;;-1.78;100.00;96871.56;5036579;28;20677;-74
2021/03/20 04:35:46;;;;;;;12.80;5.73;;;;;;;-1.79;100.00;96874.25;5035833;28;20232;-74
2021/03/20 04:38:13;;;;;;;10.00;5.23;;;;;;;-1.88;100.00;96882.50;5036165;28;20212;-74
2021/03/20 04:40:43;;;;;;;13.00;5.83;;;;;;;-1.87;100.00;96879.03;5036176;28;21340;-72
2021/03/20 04:43:12;;;;;;;11.20;5.57;;;;;;;-1.88;100.00;96872.19;5036780;28;20205;-74
2021/03/20 04:45:40;;;;;;;11.27;5.17;;;;;;;-1.88;100.00;96879.09;5035702;28;20225;-73
2021/03/20 04:48:15;;;;;;;17.77;5.53;;;;;;;-1.90;100.00;96883.53;5036203;28;20213;-73
2021/03/20 04:50:45;;;;;;;13.17;5.30;;;;;;;-1.94;100.00;96888.00;5038341;28;20454;-75
2021/03/20 04:53:14;;;;;;;13.83;6.03;;;;;;;-1.90;100.00;96879.16;5040235;28;20208;-73
2021/03/20 04:55:41;;;;;;;10.90;4.80;;;;;;;-2.00;100.00;96895.28;5039298;28;20228;-72
2021/03/20 04:58:15;;;;;;;9.97;4.93;;;;;;;-2.03;100.00;96885.94;5040421;28;20209;-73
2021/03/20 05:00:45;;;;;;;10.47;4.70;;;;;;;-2.18;100.00;96899.72;5039626;28;20224;-74
2021/03/20 05:03:17;;;;;;;11.30;5.67;;;;;;;-2.07;100.00;96897.38;5039668;28;20204;-73
2021/03/20 05:05:47;;;;;;;11.87;4.50;;;;;;;-2.09;100.00;96900.97;5038873;28;20248;-73
2021/03/20 05:08:16;;;;;;;14.60;6.10;;;;;;;-2.13;100.00;96908.03;5039822;28;20240;-73
2021/03/20 05:10:45;;;;;;;9.77;4.73;;;;;;;-2.11;100.00;96900.22;5040158;28;20270;-73
2021/03/20 05:13:20;;;;;;;9.33;4.97;;;;;;;-2.14;100.00;96901.22;5039929;28;20201;-74
2021/03/20 05:15:47;;;;;;;12.40;5.13;;;;;;;-2.13;100.00;96902.88;5038888;28;20234;-74
2021/03/20 05:18:13;;;;;;;9.77;5.23;;;;;;;-1.98;100.00;96901.19;5039691;28;20211;-74
2021/03/20 05:20:39;;;;;;;9.83;4.93;;;;;;;-2.09;100.00;96904.34;5039821;28;20537;-73
2021/03/20 05:23:06;;;;;;;11.10;5.07;;;;;;;-2.06;100.00;96898.19;5039981;28;20201;-74
2021/03/20 05:25:32;;;;;;;10.73;5.17;;;;;;;-2.00;100.00;96906.44;5038795;28;20231;-73
2021/03/20 05:27:58;;;;;;;11.93;5.17;;;;;;;-1.91;100.00;96908.50;5039563;28;20205;-74
2021/03/20 05:30:25;;;;;;;10.87;5.43;;;;;;;-1.95;100.00;96906.19;5039365;28;20205;-74
2021/03/20 05:32:51;;;;;;;12.30;5.37;;;;;;;-2.00;100.00;96909.00;5039346;28;20262;-73
2021/03/20 05:35:23;;;;;;;11.83;5.07;;;;;;;-2.04;100.00;96910.09;5038785;28;20401;-72
2021/03/20 05:37:50;;;;;;;14.03;5.70;;;;;;;-1.97;100.00;96918.34;5039118;28;20205;-74
2021/03/20 05:40:23;;;;;;;11.50;5.37;;;;;;;-1.95;100.00;96926.84;5039313;28;20217;-73
2021/03/20 05:43:24;;;;;;;14.07;5.70;;;;;;;-2.00;100.00;96924.50;5039201;28;20205;-73
2021/03/20 05:46:01;;;;;;;11.93;5.50;;;;;;;-1.91;100.00;96929.16;5038497;28;20225;-74
2021/03/20 05:48:30;;;;;;;13.63;5.60;;;;;;;-1.79;100.00;96933.66;5039143;28;20217;-73
2021/03/20 05:51:21;;;;;;;10.23;5.13;;;;;;;-1.81;100.00;96926.00;5038899;28;20222;-73
2021/03/20 05:54:21;;;;;;;11.90;4.93;;;;;;;-1.71;100.00;96927.09;5038896;28;20209;-73
2021/03/20 05:57:00;;;;;;;12.00;5.30;;;;;;;-1.69;100.00;96935.63;5037810;28;20292;-72
2021/03/20 05:59:37;;;;;;;11.80;5.47;;;;;;;-1.59;100.00;96935.91;5038731;28;20689;-74
2021/03/20 06:02:19;;;;;;;13.00;4.77;;;;;;;-1.45;100.00;96934.22;5038242;28;20201;-74
2021/03/20 06:04:48;;;;;;;10.37;5.07;;;;;;;-1.42;100.00;96934.03;5038347;28;20236;-74
2021/03/20 06:07:47;;;;;;;14.63;5.67;;;;;;;-1.31;100.00;96941.16;5038142;28;20263;-72
2021/03/20 06:10:24;;;;;;;13.75;7.57;;;;;;;-1.43;100.00;96942.72;5037367;28;20440;-72
2021/03/20 06:13:09;;;;;;;11.03;5.53;;;;;;;-1.48;100.00;96938.72;5039169;28;20212;-72
2021/03/20 06:15:48;;;;;;;13.47;5.97;;;;;;;-1.49;100.00;96942.22;5039357;28;20290;-72
2021/03/20 06:18:29;;;;;;;10.93;5.73;;;;;;;-1.37;100.00;96951.88;5038863;28;20250;-73
2021/03/20 06:21:00;;;;;;;12.30;5.40;;;;;;;-1.34;100.00;96946.53;5038619;28;20225;-72
2021/03/20 06:23:43;;;;;;;11.87;5.57;;;;;;;-1.47;100.00;96956.72;5039867;28;20208;-72
2021/03/20 06:26:14;;;;;;;15.00;5.83;;;;;;;-1.51;100.00;96959.59;5037759;28;20593;-72
2021/03/20 06:28:47;;;;;;;13.73;5.97;;;;;;;-1.40;100.00;96958.06;5038869;28;20201;-72
2021/03/20 06:31:20;;;;;;;11.23;5.63;;;;;;;-1.40;100.00;96959.78;5038923;28;20206;-72
2021/03/20 06:33:51;;;;;;;15.87;6.10;;;;;;;-1.48;100.00;96970.56;5038404;28;20202;-73
2021/03/20 06:36:22;;;;;;;11.77;5.77;;;;;;;-1.55;100.00;96974.44;5038081;28;20220;-73
2021/03/20 06:38:56;;;;;;;12.23;5.33;;;;;;;-1.61;100.00;96963.59;5038427;28;20212;-73
2021/03/20 06:41:31;;;;;;;13.97;5.33;;;;;;;-1.85;100.00;96969.31;5038662;28;20259;-73
2021/03/20 06:44:11;;;;;;;12.67;5.80;;;;;;;-1.93;100.00;96982.66;5038877;28;20278;-72
2021/03/20 06:46:39;;;;;;;15.63;7.23;;;;;;;-2.00;100.00;96976.13;5037243;28;20417;-74
2021/03/20 06:49:21;;;;;;;9.20;4.37;;;;;;;-2.01;100.00;96982.25;5038089;28;20209;-73
2021/03/20 06:51:48;;;;;;;12.57;6.17;;;;;;;-2.00;100.00;96986.47;5038873;28;20211;-73
2021/03/20 06:54:18;;;;;;;12.13;5.80;;;;;;;-1.99;100.00;96987.31;5038029;28;20251;-73
2021/03/20 06:56:46;;;;;;;13.67;6.50;;;;;;;-1.98;100.00;96982.06;5036897;28;20205;-73
2021/03/20 06:59:13;;;;;;;11.10;5.50;;;;;;;-1.88;100.00;96990.97;5038152;28;20208;-73
2021/03/20 07:01:49;;;;;;;11.77;5.40;;;;;;;-1.95;100.00;96993.97;5039051;28;20228;-73
2021/03/20 07:04:39;;;;;;;11.80;5.70;;;;;;;-1.95;100.00;96999.13;5037308;28;20962;-73
2021/03/20 07:07:25;;;;;;;15.10;7.03;;;;;;;-1.85;100.00;97001.13;5036819;28;20206;-73
2021/03/20 07:09:53;;;;;;;13.30;6.57;;;;;;;-1.76;100.00;97000.63;5038070;28;20266;-73
2021/03/20 07:12:21;;;;;;;11.60;6.00;;;;;;;-1.63;100.00;97006.78;5037582;28;20212;-73
2021/03/20 07:14:53;;;;;;;15.00;6.43;;;;;;;-1.56;100.00;97002.94;5033621;28;20233;-73
2021/03/20 07:17:37;;;;;;;14.23;6.30;;;;;;;-1.59;100.00;97005.69;5036609;28;21298;-73
2021/03/20 07:20:08;;;;;;;11.07;5.37;;;;;;;-1.77;100.00;97001.53;5034856;28;20221;-73
2021/03/20 07:22:37;;;;;;;15.80;6.17;;;;;;;-1.70;99.70;97002.88;5037578;28;20201;-73
2021/03/20 07:25:31;;;;;;;12.00;5.63;;;;;;;-1.80;100.00;97015.44;5036393;28;20726;-73
2021/03/20 07:28:06;;;;;;;13.80;5.40;;;;;;;-1.70;98.84;97013.22;5036614;28;20220;-72
2021/03/20 07:30:36;;;;;;;9.50;5.20;;;;;;;-1.59;95.60;97008.25;5037155;28;21121;-73
2021/03/20 07:33:28;;;;;;;12.77;5.80;;;;;;;-1.54;97.35;97011.41;5036839;28;20200;-73
2021/03/20 07:35:56;;;;;;;10.30;5.17;;;;;;;-1.71;96.47;97011.53;5036316;28;20224;-73
2021/03/20 07:38:27;;;;;;;11.80;4.47;;;;;;;-1.70;95.97;97021.78;5037031;28;20201;-74
2021/03/20 07:41:08;;;;;;;11.87;5.20;;;;;;;-1.78;95.95;97028.31;5036974;28;20232;-73
2021/03/20 07:43:34;;;;;;;12.57;5.63;;;;;;;-1.54;97.20;97027.78;5036855;28;20664;-74
2021/03/20 07:46:17;;;;;;;9.60;4.67;;;;;;;-1.71;95.78;97034.78;5035348;28;20217;-74
2021/03/20 07:48:44;;;;;;;11.80;5.80;;;;;;;-1.38;96.82;97038.91;5036924;28;20200;-73
2021/03/20 07:51:13;;;;;;;10.13;5.60;;;;;;;-1.33;95.26;97033.50;5036448;28;20289;-73
2021/03/20 07:53:43;;;;;;;12.70;5.70;;;;;;;-1.03;95.75;97036.00;5036440;28;20230;-73
2021/03/20 07:56:32;;;;;;;11.90;5.77;;;;;;;-0.89;92.99;97041.19;5035987;28;20216;-74
2021/03/20 07:59:13;;;;;;;10.37;4.37;;;;;;;-0.94;97.14;97043.22;5036686;28;20205;-73
2021/03/20 08:01:40;;;;;;;14.50;5.77;;;;;;;-1.08;94.31;97038.00;5036502;28;20228;-73
2021/03/20 08:04:09;;;;;;;10.63;5.50;;;;;;;-0.68;93.90;97042.53;5036887;28;21012;-73
2021/03/20 08:06:48;;;;;;;12.00;5.50;;;;;;;-0.59;93.03;97042.84;5034842;28;20212;-72
2021/03/20 08:09:25;;;;;;;8.87;4.53;;;;;;;-1.02;93.89;97049.75;5034281;28;20210;-72
2021/03/20 08:12:06;;;;;;;10.50;5.23;;;;;;;-0.89;90.95;97053.28;5037651;28;20363;-72
2021/03/20 08:14:36;;;;;;;11.50;5.20;;;;;;;-1.02;88.18;97052.31;5036664;28;20220;-72
2021/03/20 08:17:05;;;;;;;11.03;5.40;;;;;;;-0.98;90.67;97059.00;5036380;28;20248;-72
2021/03/20 08:19:32;;;;;;;13.27;5.97;;;;;;;-0.93;91.76;97062.16;5036595;28;20205;-72
2021/03/20 08:22:26;;;;;;;9.63;5.33;;;;;;;-0.96;89.64;97067.50;5036464;28;20228;-72
2021/03/20 08:25:05;;;;;;;9.10;4.50;;;;;;;-1.02;90.07;97066.13;5037849;28;20244;-72
2021/03/20 08:27:43;;;;;;;12.03;5.70;;;;;;;-0.93;89.75;97075.06;5043741;28;20206;-72
2021/03/20 08:30:26;;;;;;;11.90;5.07;;;;;;;-1.12;90.65;97080.47;5042666;28;20970;-72
2021/03/20 08:33:09;;;;;;;13.00;5.90;;;;;;;-1.04;90.04;97086.03;5043164;28;20205;-72
2021/03/20 08:35:41;;;;;;;9.17;4.00;;;;;;;-1.08;88.36;97081.97;5042241;28;20228;-72
2021/03/20 08:38:20;;;;;;;10.60;5.23;;;;;;;-0.80;91.04;97079.47;5042853;28;20212;-72
2021/03/20 08:40:56;;;;;;;9.00;5.23;;;;;;;-0.63;89.36;97076.72;5043128;28;20220;-72
2021/03/20 08:43:59;;;;;;;8.27;3.80;;;;;;;-0.55;82.65;97080.56;5042912;28;20208;-72
2021/03/20 08:46:46;;;;;;;7.53;4.07;;;;;;;-0.87;82.78;97080.72;5024398;28;20593;-72
2021/03/20 08:49:24;;;;;;;7.90;3.67;;;;;;;-0.75;87.13;97080.03;5043114;28;20233;-72
2021/03/20 08:51:56;;;;;;;6.77;4.00;;;;;;;-0.94;83.35;97082.00;5041651;28;20228;-72
2021/03/20 08:54:45;;;;;;;8.77;2.80;;;;;;;-0.99;82.19;97094.38;5042301;28;20197;-72
2021/03/20 08:57:26;;;;;;;7.33;3.77;;;;;;;-0.64;84.66;97089.75;5041331;28;20697;-72
2021/03/20 08:59:55;;;;;;;8.33;4.50;;;;;;;-0.34;88.03;97099.16;5042595;28;20672;-72
2021/03/20 09:02:35;;;;;;;8.93;4.77;;;;;;;-0.26;86.60;97099.53;5042176;28;20267;-73
2021/03/20 09:05:17;;;;;;;8.53;4.13;;;;;;;-0.57;83.35;97095.31;5041662;28;20228;-72
2021/03/20 09:07:57;;;;;;;8.20;4.37;;;;;;;-0.21;85.50;97100.91;5042638;28;20235;-73
2021/03/20 09:10:29;;;;;;;11.17;4.37;;;;;;;-0.26;82.90;97096.94;5042642;28;20201;-72
2021/03/20 09:13:04;;;;;;;9.07;4.13;;;;;;;-0.31;85.22;97094.59;5042822;28;20205;-72
2021/03/20 09:15:34;;;;;;;7.27;3.77;;;;;;;-0.64;86.38;97098.34;5041454;28;20236;-72
2021/03/20 09:18:02;;;;;;;7.90;4.30;;;;;;;-0.86;86.78;97102.28;5042829;28;20616;-72
2021/03/20 09:20:39;;;;;;;8.03;4.43;;;;;;;-0.59;85.72;97099.78;5043180;28;20225;-72
2021/03/20 09:23:06;;;;;;;7.90;4.17;;;;;;;-0.71;86.05;97103.97;5041960;28;20201;-72
2021/03/20 09:25:35;;;;;;;10.00;4.77;;;;;;;-0.62;88.04;97099.09;5041736;28;20221;-73
2021/03/20 09:28:08;;;;;;;11.83;4.63;;;;;;;-0.65;86.02;97106.22;5042743;28;20193;-73
2021/03/20 09:30:37;;;;;;;9.03;4.80;;;;;;;0.01;86.07;97107.31;5042446;28;20665;-73
2021/03/20 09:33:05;;;;;;;11.40;4.70;;;;;;;0.26;83.27;97112.66;5041947;28;20200;-73
2021/03/20 09:35:45;;;;;;;10.93;4.63;;;;;;;0.40;82.43;97104.88;5041890;28;20227;-73
2021/03/20 09:38:12;;;;;;;9.30;4.20;;;;;;;0.08;81.13;97100.00;5038547;28;20202;-73
2021/03/20 09:40:42;;;;;;;8.87;4.87;;;;;;;-0.23;81.92;97110.53;5038998;28;20746;-74
2021/03/20 09:43:23;;;;;;;9.20;4.20;;;;;;;-0.42;81.34;97109.09;5039367;28;20210;-73
2021/03/20 09:46:22;;;;;;;8.40;4.63;;;;;;;0.06;81.59;97110.47;5038228;28;20232;-73
2021/03/20 09:48:48;;;;;;;8.77;4.43;;;;;;;0.23;78.95;97112.84;5038717;28;20240;-73
2021/03/20 09:51:52;;;;;;;11.17;4.77;;;;;;;0.35;78.55;97101.72;5039151;28;20212;-73
2021/03/20 09:54:43;;;;;;;9.93;4.47;;;;;;;0.29;79.01;97103.84;5038955;28;20204;-73
2021/03/20 09:57:52;;;;;;;10.30;4.40;;;;;;;0.76;78.89;97095.63;5038225;28;20209;-73
2021/03/20 10:00:48;;;;;;;9.17;4.07;;;;;;;0.68;77.37;97091.84;5030326;28;20583;-73
2021/03/20 10:03:47;;;;;;;12.00;4.60;;;;;;;0.77;79.52;97088.66;5039055;28;20201;-73
2021/03/20 10:06:31;;;;;;;7.30;4.47;;;;;;;1.41;77.12;97081.78;5038083;28;20232;-73
2021/03/20 10:09:04;;;;;;;7.77;4.17;;;;;;;1.55;78.66;97092.09;5038576;28;20216;-73
2021/03/20 10:11:35;;;;;;;8.43;4.43;;;;;;;1.66;76.22;97097.41;5038343;28;20201;-73
2021/03/20 10:14:03;;;;;;;6.83;3.70;;;;;;;1.53;70.55;97092.19;5038638;28;20211;-71
2021/03/20 10:16:33;;;;;;;7.83;4.13;;;;;;;1.90;70.63;97092.22;5037664;28;20902;-73
2021/03/20 10:19:09;;;;;;;9.57;3.77;;;;;;;1.95;70.32;97089.31;5038445;28;21103;-73
2021/03/20 10:21:35;;;;;;;5.17;3.40;;;;;;;1.59;66.73;97097.00;5037815;28;20704;-73
2021/03/20 10:24:17;;;;;;;7.10;3.33;;;;;;;0.50;72.52;97095.59;5038081;28;20209;-73
2021/03/20 10:26:50;;;;;;;4.27;2.60;;;;;;;0.00;72.97;97099.66;5037960;28;20208;-74
2021/03/20 10:29:29;;;;;;;6.40;3.70;;;;;;;0.06;73.93;97102.69;5038481;28;20208;-73
2021/03/20 10:32:04;;;;;;;7.20;3.80;;;;;;;0.77;72.25;97096.44;5038577;28;20204;-72
2021/03/20 10:34:43;;;;;;;4.83;3.43;;;;;;;1.21;67.25;97090.06;5038025;28;20226;-73
2021/03/20 10:37:12;;;;;;;5.10;2.50;;;;;;;1.46;64.53;97093.50;5037117;28;20204;-73
2021/03/20 10:39:41;;;;;;;5.10;3.43;;;;;;;1.82;69.12;97091.09;5038091;28;20208;-73
2021/03/20 10:42:16;;;;;;;6.20;3.10;;;;;;;1.30;69.05;97095.47;5038078;28;20224;-74
2021/03/20 10:44:44;;;;;;;6.23;3.43;;;;;;;1.45;70.84;97093.63;5037905;28;20224;-72
2021/03/20 10:47:22;;;;;;;7.57;3.63;;;;;;;1.84;71.52;97087.41;5037544;28;20205;-73
2021/03/20 10:49:53;;;;;;;9.30;3.97;;;;;;;2.07;73.34;97085.88;5038287;28;20240;-73
2021/03/20 10:52:25;;;;;;;13.17;4.87;;;;;;;2.04;67.43;97086.91;5038272;28;20211;-73
2021/03/20 10:54:54;;;;;;;6.00;3.27;;;;;;;1.64;65.87;97087.09;5038058;28;20229;-73
2021/03/20 10:57:26;;;;;;;7.17;2.60;;;;;;;1.17;64.28;97092.94;5037265;28;20275;-72
2021/03/20 10:59:52;;;;;;;9.53;3.17;;;;;;;1.76;62.65;97088.03;5037737;28;20235;-73
2021/03/20 11:02:30;;;;;;;7.20;3.63;;;;;;;1.91;65.69;97082.66;5037561;28;20230;-74
2021/03/20 11:05:12;;;;;;;6.60;3.17;;;;;;;2.65;63.16;97077.31;5037523;28;20326;-72
2021/03/20 11:07:46;;;;;;;6.07;3.17;;;;;;;2.25;62.49;97080.22;5037242;28;20594;-73
2021/03/20 11:10:13;;;;;;;5.10;3.40;;;;;;;2.69;64.66;97077.94;5037460;28;20240;-74
2021/03/20 11:12:40;;;;;;;6.97;3.73;;;;;;;2.54;66.84;97084.22;5037054;28;20215;-73
2021/03/20 11:15:07;;;;;;;4.73;2.83;;;;;;;1.61;60.57;97089.09;5037038;28;20227;-72
2021/03/20 11:17:34;;;;;;;5.53;3.00;;;;;;;2.00;62.01;97084.63;5037687;28;20208;-73
2021/03/20 11:20:08;;;;;;;4.33;2.57;;;;;;;1.27;61.73;97095.69;5037012;28;20209;-73
2021/03/20 11:22:39;;;;;;;4.43;2.67;;;;;;;0.45;65.95;97092.44;5036906;28;20208;-72
2021/03/20 11:25:08;;;;;;;7.03;3.13;;;;;;;0.88;66.94;97092.25;5036012;28;20258;-72
2021/03/20 11:27:36;;;;;;;5.30;2.57;;;;;;;0.71;64.23;97094.22;5037402;28;20201;-73
2021/03/20 11:30:07;;;;;;;6.77;2.83;;;;;;;0.97;63.34;97098.56;5037622;28;20300;-73
2021/03/20 11:32:36;;;;;;;5.73;2.83;;;;;;;1.48;60.03;97099.44;5037240;28;20204;-73
2021/03/20 11:35:08;;;;;;;6.73;2.83;;;;;;;1.94;59.64;97090.25;5036237;28;20224;-73
2021/03/20 11:37:35;;;;;;;5.43;2.90;;;;;;;2.38;61.39;97088.00;5037306;28;20205;-73
2021/03/20 11:40:05;;;;;;;5.30;2.77;;;;;;;2.58;58.83;97083.91;5037143;28;20224;-72
2021/03/20 11:42:37;;;;;;;6.23;2.40;;;;;;;1.62;58.37;97091.59;5037205;28;20347;-73
2021/03/20 11:45:08;;;;;;;5.73;2.80;;;;;;;0.99;63.25;97091.53;5036269;28;20263;-73
2021/03/20 11:47:37;;;;;;;8.40;3.00;;;;;;;1.01;60.75;97090.50;5036667;28;20212;-72
2021/03/20 11:50:13;;;;;;;4.40;2.43;;;;;;;1.53;58.00;97087.00;5036658;28;20209;-73
2021/03/20 11:52:48;;;;;;;6.97;2.83;;;;;;;2.25;57.33;97076.78;5036156;28;20213;-72